createdAt,value
2019-04-05T00:00:35.417Z,5.67
2019-04-05T00:03:04.051Z,5.55
2019-04-05T00:08:20.312Z,5.65
2019-04-05T00:10:48.791Z,5.80
2019-04-05T00:13:17.430Z,5.65
2019-04-05T00:15:46.192Z,5.70
2019-04-05T00:18:14.681Z,5.58
2019-04-05T00:20:43.314Z,4.85
2019-04-05T00:23:11.986Z,5.45
2019-04-05T00:25:40.464Z,5.47
2019-04-05T00:28:09.166Z,5.85
2019-04-05T00:30:37.850Z,5.08
2019-04-05T00:33:06.413Z,5.03
2019-04-05T00:35:34.967Z,4.55
2019-04-05T00:38:03.630Z,5.42
2019-04-05T00:40:32.535Z,4.12
2019-04-05T00:43:01.088Z,3.70
2019-04-05T00:45:29.675Z,5.33
2019-04-05T00:47:58.296Z,5.03
2019-04-05T00:50:26.929Z,3.45
2019-04-05T00:52:55.760Z,3.55
2019-04-05T00:55:24.386Z,4.60
2019-04-05T00:57:53.020Z,3.35
2019-04-05T01:00:21.779Z,5.37
2019-04-05T01:02:50.407Z,4.33
2019-04-05T01:05:19.028Z,5.30
2019-04-05T01:07:47.689Z,5.92
2019-04-05T01:10:16.625Z,4.83
2019-04-05T01:12:47.149Z,3.85
2019-04-05T01:15:16.413Z,5.45
2019-04-05T01:17:45.351Z,4.28
2019-04-05T01:20:15.382Z,4.33
2019-04-05T01:22:46.381Z,4.78
2019-04-05T01:25:15.111Z,3.50
2019-04-05T01:27:43.821Z,2.95
2019-04-05T01:30:16.458Z,4.92
2019-04-05T01:32:45.792Z,3.95
2019-04-05T01:35:16.004Z,4.30
2019-04-05T01:37:46.167Z,3.50
2019-04-05T01:40:15.090Z,3.30
2019-04-05T01:42:44.115Z,2.95
2019-04-05T01:45:12.883Z,4.37
2019-04-05T01:47:41.442Z,2.95
2019-04-05T01:50:10.362Z,2.72
2019-04-05T01:52:39.466Z,5.60
2019-04-05T01:55:08.395Z,4.22
2019-04-05T01:57:37.843Z,5.37
2019-04-05T02:00:09.491Z,5.05
2019-04-05T02:02:38.113Z,4.67
2019-04-05T02:05:08.743Z,6.10
2019-04-05T02:07:38.115Z,5.78
2019-04-05T02:10:09.747Z,5.10
2019-04-05T02:12:39.375Z,3.47
2019-04-05T02:15:08.969Z,5.13
2019-04-05T02:17:37.777Z,6.60
2019-04-05T02:20:08.874Z,6.15
2019-04-05T02:22:37.554Z,6.90
2019-04-05T02:25:07.298Z,6.58
2019-04-05T02:27:35.936Z,5.87
2019-04-05T02:30:06.817Z,4.75
2019-04-05T02:32:35.540Z,5.90
2019-04-05T02:35:05.857Z,6.20
2019-04-05T02:37:34.769Z,6.35
2019-04-05T02:40:04.626Z,5.72
2019-04-05T02:42:34.149Z,6.22
2019-04-05T02:45:03.444Z,7.35
2019-04-05T02:47:32.185Z,4.97
2019-04-05T02:50:02.205Z,6.20
2019-04-05T02:52:31.261Z,7.12
2019-04-05T02:55:00.281Z,7.00
2019-04-05T02:57:30.607Z,7.83
2019-04-05T03:00:00.076Z,7.90
2019-04-05T03:02:29.944Z,7.12
2019-04-05T03:04:58.565Z,6.87
2019-04-05T03:07:28.167Z,8.63
2019-04-05T03:09:59.186Z,7.40
2019-04-05T03:12:28.527Z,8.30
2019-04-05T03:14:58.089Z,8.33
2019-04-05T03:17:27.515Z,6.45
2019-04-05T03:19:59.062Z,8.40
2019-04-05T03:22:29.738Z,8.45
2019-04-05T03:25:00.365Z,9.00
2019-04-05T03:27:31.902Z,9.30
2019-04-05T03:30:02.102Z,8.48
2019-04-05T03:32:31.117Z,8.68
2019-04-05T03:34:59.824Z,8.13
2019-04-05T03:37:28.849Z,9.05
2019-04-05T03:39:57.786Z,9.90
2019-04-05T03:42:26.829Z,9.20
2019-04-05T03:44:55.614Z,9.00
2019-04-05T03:47:24.344Z,9.28
2019-04-05T03:49:52.977Z,9.05
2019-04-05T03:52:21.682Z,8.98
2019-04-05T03:54:50.330Z,8.63
2019-04-05T03:57:19.065Z,9.17
2019-04-05T03:59:48.123Z,9.55
2019-04-05T04:02:16.960Z,9.55
2019-04-05T04:04:45.685Z,8.03
2019-04-05T04:07:14.607Z,9.18
2019-04-05T04:09:43.661Z,8.00
2019-04-05T04:12:12.490Z,9.33
2019-04-05T04:14:41.169Z,9.95
2019-04-05T04:17:12.550Z,10.50
2019-04-05T04:19:40.365Z,9.35
2019-04-05T04:22:20.851Z,11.03
2019-04-05T04:24:49.587Z,10.58
2019-04-05T04:27:18.834Z,10.43
2019-04-05T04:29:47.632Z,11.10
2019-04-05T04:32:16.676Z,11.03
2019-04-05T04:34:45.890Z,10.55
2019-04-05T04:37:14.575Z,7.92
2019-04-05T04:39:43.329Z,9.50
2019-04-05T04:42:12.477Z,9.65
2019-04-05T04:44:42.344Z,9.70
2019-04-05T04:47:25.629Z,11.18
2019-04-05T04:49:42.703Z,10.95
2019-04-05T04:52:11.967Z,10.30
2019-04-05T04:54:40.638Z,10.93
2019-04-05T04:57:09.264Z,11.35
2019-04-05T04:59:38.151Z,11.45
2019-04-05T05:02:06.798Z,9.48
2019-04-05T05:04:35.745Z,12.65
2019-04-05T05:07:04.616Z,8.33
2019-04-05T05:09:33.644Z,11.55
2019-04-05T05:12:02.577Z,11.08
2019-04-05T05:14:32.202Z,11.18
2019-04-05T05:17:01.037Z,11.48
2019-04-05T05:19:29.872Z,10.32
2019-04-05T05:21:58.537Z,11.85
2019-04-05T05:24:27.433Z,11.15
2019-04-05T05:26:56.897Z,11.88
2019-04-05T05:29:25.543Z,11.35
2019-04-05T05:31:54.430Z,9.98
2019-04-05T05:34:23.108Z,10.20
2019-04-05T05:36:51.943Z,10.28
2019-04-05T05:39:20.712Z,8.88
2019-04-05T05:41:49.341Z,9.10
2019-04-05T05:44:17.973Z,8.85
2019-04-05T05:46:46.630Z,9.53
2019-04-05T05:49:15.119Z,8.03
2019-04-05T05:51:43.958Z,9.78
2019-04-05T05:54:12.667Z,9.08
2019-04-05T05:56:41.169Z,9.20
2019-04-05T05:59:09.731Z,8.95
2019-04-05T06:01:38.394Z,8.50
2019-04-05T06:04:07.025Z,8.53
2019-04-05T06:06:35.663Z,9.73
2019-04-05T06:09:06.181Z,9.28
2019-04-05T06:11:34.847Z,10.38
2019-04-05T06:14:03.484Z,10.65
2019-04-05T06:16:32.037Z,10.43
2019-04-05T06:19:00.677Z,11.22
2019-04-05T06:21:29.180Z,10.90
2019-04-05T06:23:57.758Z,11.93
2019-04-05T06:26:26.398Z,9.48
2019-04-05T06:28:55.157Z,10.70
2019-04-05T06:31:23.779Z,10.82
2019-04-05T06:33:52.347Z,9.53
2019-04-05T06:36:20.989Z,10.80
2019-04-05T06:38:49.875Z,10.28
2019-04-05T06:41:18.521Z,11.63
2019-04-05T06:43:47.021Z,10.05
2019-04-05T06:46:15.698Z,10.65
2019-04-05T06:48:44.339Z,10.20
2019-04-05T06:51:12.838Z,11.60
2019-04-05T06:53:41.457Z,10.98
2019-04-05T06:56:10.102Z,9.70
2019-04-05T06:58:38.746Z,10.18
2019-04-05T07:01:07.420Z,11.63
2019-04-05T07:03:35.985Z,11.20
2019-04-05T07:06:04.618Z,10.60
2019-04-05T07:08:33.447Z,11.53
2019-04-05T07:11:01.969Z,10.70
2019-04-05T07:13:30.628Z,11.00
2019-04-05T07:15:59.336Z,11.78
2019-04-05T07:18:35.462Z,11.70
2019-04-05T07:20:58.512Z,10.78
2019-04-05T07:23:27.543Z,11.68
2019-04-05T07:25:56.303Z,11.18
2019-04-05T07:28:25.341Z,11.83
2019-04-05T07:30:53.947Z,12.30
2019-04-05T07:33:22.450Z,11.97
2019-04-05T07:35:51.093Z,12.43
2019-04-05T07:38:19.634Z,11.93
2019-04-05T07:40:48.272Z,11.35
2019-04-05T07:43:16.906Z,11.68
2019-04-05T07:45:46.168Z,11.50
2019-04-05T07:48:14.799Z,11.60
2019-04-05T07:50:43.454Z,12.35
2019-04-05T07:53:12.411Z,12.00
2019-04-05T07:55:40.880Z,12.33
2019-04-05T07:58:09.377Z,11.60
2019-04-05T08:00:46.641Z,11.08
2019-04-05T08:03:15.693Z,12.15
2019-04-05T08:05:44.521Z,9.10
2019-04-05T08:08:28.459Z,11.68
2019-04-05T08:10:58.429Z,12.65
2019-04-05T08:13:29.469Z,12.25
2019-04-05T08:16:01.339Z,9.65
2019-04-05T08:18:29.842Z,12.45
2019-04-05T08:20:58.347Z,12.85
2019-04-05T08:23:27.133Z,12.50
2019-04-05T08:25:55.786Z,12.35
2019-04-05T08:28:24.422Z,11.35
2019-04-05T08:30:52.955Z,11.85
2019-04-05T08:33:21.451Z,11.43
2019-04-05T08:35:50.085Z,11.63
2019-04-05T08:38:18.769Z,10.63
2019-04-05T08:40:47.413Z,11.38
2019-04-05T08:43:16.083Z,11.08
2019-04-05T08:45:44.999Z,11.70
2019-04-05T08:48:13.643Z,12.05
2019-04-05T08:50:42.311Z,10.28
2019-04-05T08:53:11.086Z,11.43
2019-04-05T08:55:39.734Z,10.88
2019-04-05T08:58:08.270Z,9.33
2019-04-05T09:00:36.905Z,9.45
2019-04-05T09:03:05.683Z,10.45
2019-04-05T09:05:34.293Z,10.05
2019-04-05T09:08:02.837Z,10.78
2019-04-05T09:10:31.483Z,9.85
2019-04-05T09:13:00.324Z,9.30
2019-04-05T09:15:28.823Z,10.32
2019-04-05T09:17:57.316Z,7.62
2019-04-05T09:20:25.994Z,11.10
2019-04-05T09:22:54.728Z,9.73
2019-04-05T09:25:23.366Z,10.70
2019-04-05T09:27:51.901Z,8.75
2019-04-05T09:30:20.535Z,8.58
2019-04-05T09:32:49.169Z,10.38
2019-04-05T09:35:17.873Z,10.58
2019-04-05T09:37:46.539Z,8.90
2019-04-05T09:40:15.464Z,8.55
2019-04-05T09:42:44.166Z,9.80
2019-04-05T09:45:12.952Z,9.53
2019-04-05T09:47:41.466Z,9.23
2019-04-05T09:50:10.454Z,7.15
2019-04-05T09:52:40.209Z,8.60
2019-04-05T09:55:09.085Z,8.35
2019-04-05T09:57:37.626Z,8.33
2019-04-05T10:00:11.044Z,9.00
2019-04-05T10:02:39.681Z,9.73
2019-04-05T10:05:08.357Z,10.18
2019-04-05T10:07:36.889Z,7.72
2019-04-05T10:10:06.116Z,7.90
2019-04-05T10:12:34.997Z,8.78
2019-04-05T10:15:04.377Z,8.88
2019-04-05T10:17:32.990Z,7.83
2019-04-05T10:20:01.492Z,8.68
2019-04-05T10:22:30.050Z,8.15
2019-04-05T10:24:58.726Z,8.58
2019-04-05T10:27:27.366Z,6.40
2019-04-05T10:29:55.932Z,7.83
2019-04-05T10:32:24.469Z,7.87
2019-04-05T10:34:53.097Z,7.25
2019-04-05T10:37:21.730Z,6.53
2019-04-05T10:39:50.268Z,7.35
2019-04-05T10:42:33.557Z,7.72
2019-04-05T10:45:02.688Z,7.05
2019-04-05T10:47:31.433Z,7.72
2019-04-05T10:50:03.319Z,8.85
2019-04-05T10:52:30.239Z,7.95
2019-04-05T10:54:58.944Z,7.97
2019-04-05T10:57:27.509Z,8.48
2019-04-05T10:59:56.195Z,8.38
2019-04-05T11:02:24.828Z,7.92
2019-04-05T11:04:53.403Z,8.63
2019-04-05T11:07:21.951Z,8.95
2019-04-05T11:09:53.136Z,10.00
2019-04-05T11:12:20.974Z,10.85
2019-04-05T11:14:49.571Z,9.80
2019-04-05T11:17:18.141Z,11.25
2019-04-05T11:19:46.869Z,10.82
2019-04-05T11:22:15.574Z,9.65
2019-04-05T11:24:44.175Z,10.90
2019-04-05T11:27:12.762Z,10.25
2019-04-05T11:29:41.437Z,11.88
2019-04-05T11:32:10.115Z,10.88
2019-04-05T11:34:38.680Z,11.33
2019-04-05T11:37:07.367Z,10.10
2019-04-05T11:39:36.211Z,10.58
2019-04-05T11:42:05.008Z,10.80
2019-04-05T11:44:34.297Z,10.53
2019-04-05T11:47:04.754Z,10.80
2019-04-05T11:49:34.863Z,11.25
2019-04-05T11:52:03.564Z,10.90
2019-04-05T11:54:32.213Z,10.35
2019-04-05T11:57:00.857Z,10.32
2019-04-05T11:59:29.822Z,10.18
2019-04-05T12:01:59.978Z,10.20
2019-04-05T12:04:28.613Z,10.75
2019-04-05T12:06:57.502Z,10.28
2019-04-05T12:09:26.166Z,10.63
2019-04-05T12:11:54.823Z,9.25
2019-04-05T12:14:30.189Z,9.48
2019-04-05T12:16:53.914Z,10.00
2019-04-05T12:19:22.417Z,10.28
2019-04-05T12:21:51.149Z,8.70
2019-04-05T12:24:19.778Z,9.65
2019-04-05T12:26:48.436Z,9.95
2019-04-05T12:29:17.175Z,9.63
2019-04-05T12:31:45.757Z,9.45
2019-04-05T12:34:14.396Z,10.82
2019-04-05T12:36:43.151Z,11.33
2019-04-05T12:39:11.723Z,11.53
2019-04-05T12:41:40.937Z,10.13
2019-04-05T12:44:14.346Z,9.75
2019-04-05T12:46:40.721Z,8.85
2019-04-05T12:49:09.306Z,10.40
2019-04-05T12:51:37.987Z,10.18
2019-04-05T12:54:06.716Z,10.00
2019-04-05T12:56:35.290Z,10.82
2019-04-05T12:59:04.013Z,11.38
2019-04-05T13:01:32.655Z,10.40
2019-04-05T13:04:01.221Z,8.95
2019-04-05T13:06:29.845Z,10.25
2019-04-05T13:08:58.494Z,10.23
2019-04-05T13:11:27.215Z,10.20
2019-04-05T13:13:56.332Z,11.20
2019-04-05T13:16:25.389Z,11.08
2019-04-05T13:18:54.032Z,10.50
2019-04-05T13:21:27.431Z,10.75
2019-04-05T13:23:52.934Z,10.10
2019-04-05T13:26:21.438Z,10.80
2019-04-05T13:28:50.376Z,11.05
2019-04-05T13:31:19.052Z,9.38
2019-04-05T13:33:47.510Z,12.03
2019-04-05T13:36:16.431Z,9.85
2019-04-05T13:38:54.598Z,10.95
2019-04-05T13:41:15.238Z,10.30
2019-04-05T13:43:43.899Z,9.28
2019-04-05T13:46:21.975Z,10.10
2019-04-05T13:48:42.824Z,9.08
2019-04-05T13:51:12.928Z,9.28
2019-04-05T13:53:41.737Z,9.45
2019-04-05T13:56:11.044Z,10.55
2019-04-05T13:58:39.878Z,9.80
2019-04-05T14:01:08.500Z,9.08
2019-04-05T14:03:37.137Z,10.85
2019-04-05T14:06:05.919Z,9.88
2019-04-05T14:08:36.343Z,9.13
2019-04-05T14:11:05.442Z,8.93
2019-04-05T14:13:34.114Z,8.90
2019-04-05T14:16:02.755Z,9.63
2019-04-05T14:18:31.399Z,8.43
2019-04-05T14:21:00.149Z,8.43
2019-04-05T14:23:28.639Z,6.83
2019-04-05T14:25:59.515Z,6.50
2019-04-05T14:28:27.529Z,7.12
2019-04-05T14:30:56.162Z,6.90
2019-04-05T14:33:25.398Z,7.35
2019-04-05T14:35:55.397Z,5.75
2019-04-05T14:38:24.074Z,6.78
2019-04-05T14:40:52.699Z,6.65
2019-04-05T14:43:21.517Z,6.65
2019-04-05T14:45:50.197Z,6.78
2019-04-05T14:48:18.915Z,6.50
2019-04-05T14:50:47.589Z,7.45
2019-04-05T14:53:16.228Z,6.22
2019-04-05T14:55:44.858Z,5.47
2019-04-05T14:58:13.602Z,6.40
2019-04-05T15:00:42.158Z,6.47
2019-04-05T15:03:10.788Z,6.80
2019-04-05T15:05:39.467Z,5.50
2019-04-05T15:08:07.959Z,6.20
2019-04-05T15:10:36.942Z,5.87
2019-04-05T15:13:05.824Z,5.90
2019-04-05T15:15:34.452Z,5.65
2019-04-05T15:18:02.968Z,6.35
2019-04-05T15:20:32.691Z,5.80
2019-04-05T15:23:01.935Z,6.62
2019-04-05T15:25:30.561Z,6.72
2019-04-05T15:27:59.088Z,6.00
2019-04-05T15:30:27.605Z,6.72
2019-04-05T15:32:58.510Z,7.85
2019-04-05T15:35:28.272Z,7.60
2019-04-05T15:37:57.376Z,6.47
2019-04-05T15:40:26.039Z,4.97
2019-04-05T15:42:54.736Z,6.30
2019-04-05T15:45:23.366Z,7.55
2019-04-05T15:47:52.748Z,5.45
2019-04-05T15:50:22.530Z,5.87
2019-04-05T15:52:51.061Z,5.33
2019-04-05T15:55:19.693Z,5.17
2019-04-05T15:57:48.370Z,6.05
2019-04-05T16:00:21.991Z,6.42
2019-04-05T16:02:50.568Z,6.80
2019-04-05T16:05:19.666Z,7.55
2019-04-05T16:07:48.293Z,6.95
2019-04-05T16:10:17.036Z,6.35
2019-04-05T16:12:45.645Z,6.85
2019-04-05T16:15:14.573Z,6.03
2019-04-05T16:17:43.131Z,6.20
2019-04-05T16:20:12.415Z,5.65
2019-04-05T16:22:41.047Z,5.85
2019-04-05T16:25:09.872Z,7.00
2019-04-05T16:27:38.477Z,5.95
2019-04-05T16:30:07.681Z,6.90
2019-04-05T16:32:36.317Z,6.35
2019-04-05T16:35:06.631Z,6.80
2019-04-05T16:37:35.215Z,7.42
2019-04-05T16:40:05.284Z,7.42
2019-04-05T16:42:33.960Z,6.70
2019-04-05T16:45:02.594Z,7.40
2019-04-05T16:47:31.088Z,7.17
2019-04-05T16:49:59.817Z,7.70
2019-04-05T16:52:28.449Z,7.00
2019-04-05T16:54:57.084Z,6.33
2019-04-05T16:57:25.756Z,7.08
2019-04-05T16:59:54.406Z,6.78
2019-04-05T17:02:22.970Z,8.35
2019-04-05T17:04:51.578Z,8.00
2019-04-05T17:07:20.214Z,8.93
2019-04-05T17:09:48.901Z,8.35
2019-04-05T17:12:17.434Z,9.20
2019-04-05T17:14:46.008Z,9.88
2019-04-05T17:17:14.649Z,9.78
2019-04-05T17:19:43.324Z,11.33
2019-04-05T17:22:11.825Z,10.35
2019-04-05T17:24:40.318Z,10.10
2019-04-05T17:27:09.182Z,9.15
2019-04-05T17:29:37.817Z,9.53
2019-04-05T17:32:06.461Z,10.18
2019-04-05T17:34:35.003Z,10.25
2019-04-05T17:37:03.722Z,10.30
2019-04-05T17:39:32.347Z,10.28
2019-04-05T17:42:18.998Z,10.10
2019-04-05T17:44:47.499Z,9.55
2019-04-05T17:47:16.139Z,10.45
2019-04-05T17:49:44.805Z,9.85
2019-04-05T17:52:13.376Z,9.80
2019-04-05T17:54:42.007Z,9.68
2019-04-05T17:57:10.985Z,10.15
2019-04-05T17:59:39.918Z,9.48
2019-04-05T18:02:08.632Z,10.93
2019-04-05T18:04:37.286Z,9.98
2019-04-05T18:07:06.050Z,11.40
2019-04-05T18:09:34.700Z,10.63
2019-04-05T18:12:04.332Z,10.93
2019-04-05T18:14:32.973Z,10.13
2019-04-05T18:17:01.499Z,11.00
2019-04-05T18:19:30.319Z,10.40
2019-04-05T18:21:58.968Z,10.72
2019-04-05T18:24:27.594Z,11.22
2019-04-05T18:26:56.151Z,11.50
2019-04-05T18:29:24.651Z,11.43
2019-04-05T18:31:53.314Z,11.93
2019-04-05T18:34:22.225Z,12.07
2019-04-05T18:36:50.727Z,12.25
2019-04-05T18:39:19.295Z,11.90
2019-04-05T18:41:47.978Z,13.03
2019-04-05T18:44:16.625Z,12.37
2019-04-05T18:46:45.259Z,12.93
2019-04-05T18:49:14.037Z,12.65
2019-04-05T18:51:42.692Z,11.22
2019-04-05T18:54:11.329Z,11.73
2019-04-05T18:56:40.176Z,9.88
2019-04-05T18:59:08.843Z,10.43
2019-04-05T19:01:37.429Z,10.28
2019-04-05T19:04:06.063Z,10.00
2019-04-05T19:06:34.686Z,8.33
2019-04-05T19:09:05.041Z,9.28
2019-04-05T19:11:33.666Z,9.08
2019-04-05T19:14:03.260Z,7.83
2019-04-05T19:16:31.892Z,8.68
2019-04-05T19:19:00.566Z,8.45
2019-04-05T19:21:29.134Z,7.65
2019-04-05T19:23:57.634Z,7.67
2019-04-05T19:26:26.307Z,8.25
2019-04-05T19:28:54.953Z,8.85
2019-04-05T19:48:55.774Z,7.80
2019-04-05T19:51:24.445Z,8.23
2019-04-05T19:54:01.057Z,7.92
2019-04-05T19:56:23.330Z,7.80
2019-04-05T19:58:51.832Z,8.50
2019-04-05T20:01:20.470Z,8.93
2019-04-05T20:03:49.168Z,8.68
2019-04-05T20:06:17.739Z,8.28
2019-04-05T20:08:46.296Z,7.92
2019-04-05T20:11:14.977Z,9.10
2019-04-05T20:13:43.633Z,7.37
2019-04-05T20:16:12.250Z,7.92
2019-04-05T20:18:40.921Z,8.65
2019-04-05T20:21:09.479Z,7.62
2019-04-05T20:23:47.144Z,7.75
2019-04-05T20:26:08.393Z,7.20
2019-04-05T20:28:37.024Z,6.50
2019-04-05T20:31:05.769Z,8.00
2019-04-05T20:33:34.315Z,7.45
2019-04-05T20:36:02.943Z,7.97
2019-04-05T20:38:31.585Z,8.73
2019-04-05T20:41:00.122Z,8.83
2019-04-05T20:43:28.617Z,8.13
2019-04-05T20:45:57.274Z,8.15
2019-04-05T20:48:25.953Z,8.45
2019-04-05T20:50:54.443Z,7.85
2019-04-05T20:53:23.122Z,9.05
2019-04-05T20:55:51.845Z,8.15
2019-04-05T20:58:20.336Z,7.97
2019-04-05T21:00:48.969Z,7.83
2019-04-05T21:03:17.793Z,7.87
2019-04-05T21:05:46.423Z,8.08
2019-04-05T21:08:14.910Z,7.85
2019-04-05T21:10:43.815Z,8.18
2019-04-05T21:13:12.482Z,8.18
2019-04-05T21:15:40.981Z,8.25
2019-04-05T21:18:09.586Z,7.95
2019-04-05T21:20:38.277Z,9.55
2019-04-05T21:23:06.881Z,10.40
2019-04-05T21:25:35.675Z,10.98
2019-04-05T21:28:04.239Z,13.38
2019-04-05T21:30:32.875Z,14.03
2019-04-05T21:33:01.586Z,13.90
2019-04-05T21:35:30.223Z,13.85
2019-04-05T21:37:58.860Z,11.68
2019-04-05T21:40:27.442Z,10.78
2019-04-05T21:42:55.931Z,12.58
2019-04-05T21:45:24.567Z,14.13
2019-04-05T21:47:53.251Z,14.07
2019-04-05T21:50:21.746Z,13.38
2019-04-05T21:52:50.237Z,13.48
2019-04-05T21:55:18.923Z,11.22
2019-04-05T21:57:47.561Z,11.15
2019-04-05T22:00:28.368Z,10.75
2019-04-05T22:02:56.990Z,9.73
2019-04-05T22:05:25.626Z,11.00
2019-04-05T22:07:54.304Z,9.78
2019-04-05T22:10:22.789Z,10.80
2019-04-05T22:12:51.427Z,9.73
2019-04-05T22:15:20.080Z,10.18
2019-04-05T22:17:48.692Z,9.70
2019-04-05T22:20:17.325Z,10.35
2019-04-05T22:22:46.178Z,9.98
2019-04-05T22:25:14.670Z,9.75
2019-04-05T22:27:43.193Z,9.05
2019-04-05T22:30:12.072Z,9.45
2019-04-05T22:32:40.701Z,9.53
2019-04-05T22:35:09.437Z,9.38
2019-04-05T22:37:38.008Z,9.25
2019-04-05T22:40:07.645Z,10.32
2019-04-05T22:42:36.315Z,9.18
2019-04-05T22:45:06.752Z,9.93
2019-04-05T22:47:35.979Z,9.65
2019-04-05T22:50:06.332Z,10.30
2019-04-05T22:52:34.976Z,9.80
2019-04-05T22:55:11.063Z,10.05
2019-04-05T22:57:34.059Z,9.88
2019-04-05T23:00:02.693Z,8.93
2019-04-05T23:02:31.322Z,8.40
2019-04-05T23:05:01.012Z,9.98
2019-04-05T23:07:29.634Z,8.43
2019-04-05T23:09:58.287Z,9.58
2019-04-05T23:12:26.942Z,9.75
2019-04-05T23:14:55.504Z,9.05
2019-04-05T23:17:25.127Z,8.93
2019-04-05T23:19:53.756Z,9.00
2019-04-05T23:22:22.388Z,10.10
2019-04-05T23:24:50.882Z,8.90
2019-04-05T23:27:19.483Z,8.53
2019-04-05T23:29:48.112Z,8.83
2019-04-05T23:32:16.605Z,9.78
2019-04-05T23:34:45.297Z,8.10
2019-04-05T23:37:13.902Z,6.30
2019-04-05T23:39:42.469Z,10.30
2019-04-05T23:42:11.181Z,10.20
2019-04-05T23:44:39.812Z,9.80
2019-04-05T23:47:08.438Z,9.25
2019-04-05T23:49:37.144Z,6.75
2019-04-05T23:52:05.635Z,10.53
2019-04-05T23:54:34.268Z,10.82
2019-04-05T23:57:03.010Z,10.65
2019-04-05T23:59:31.516Z,11.05
